createdAt,value
2022-10-30T00:00:18.631Z,10.6
2022-10-30T00:01:27.070Z,10.6
2022-10-30T00:02:35.369Z,10.6
2022-10-30T00:03:43.840Z,9.1
2022-10-30T00:04:52.190Z,9.1
2022-10-30T00:06:00.543Z,9.1
2022-10-30T00:07:09.060Z,12
2022-10-30T00:08:17.405Z,12
2022-10-30T00:09:25.737Z,12
2022-10-30T00:10:34.277Z,10.4
2022-10-30T00:11:42.626Z,10.4
2022-10-30T00:12:50.974Z,10.4
2022-10-30T00:13:59.522Z,12.5
2022-10-30T00:15:07.859Z,12.5
2022-10-30T00:16:16.208Z,12.5
2022-10-30T00:17:24.746Z,13
2022-10-30T00:18:33.093Z,13
2022-10-30T00:19:41.421Z,13
2022-10-30T00:20:50.023Z,12.3
2022-10-30T00:22:58.772Z,12.3
2022-10-30T00:24:06.987Z,12.5
2022-10-30T00:25:15.309Z,12.5
2022-10-30T00:26:23.635Z,12.5
2022-10-30T00:27:32.172Z,11.2
2022-10-30T00:28:40.501Z,11.2
2022-10-30T00:29:48.829Z,11.2
2022-10-30T00:30:57.363Z,12
2022-10-30T00:32:05.687Z,12
2022-10-30T00:33:14.025Z,12
2022-10-30T00:34:22.569Z,13.5
2022-10-30T00:35:30.903Z,13.5
2022-10-30T00:36:39.238Z,13.5
2022-10-30T00:37:47.763Z,10.8
2022-10-30T00:38:56.127Z,10.8
2022-10-30T00:40:04.459Z,10.8
2022-10-30T00:41:12.995Z,12.6
2022-10-30T00:42:21.335Z,12.6
2022-10-30T00:43:29.680Z,12.6
2022-10-30T00:44:38.219Z,13.7
2022-10-30T00:45:46.549Z,13.7
2022-10-30T00:46:54.881Z,13.7
2022-10-30T00:48:03.419Z,11.7
2022-10-30T00:49:11.755Z,11.7
2022-10-30T00:50:20.138Z,11.7
2022-10-30T00:51:28.649Z,15.9
2022-10-30T00:52:36.967Z,15.9
2022-10-30T00:53:45.303Z,15.9
2022-10-30T00:54:53.891Z,12.3
2022-10-30T00:56:02.183Z,12.3
2022-10-30T00:57:10.515Z,12.3
2022-10-30T00:58:19.069Z,11.4
2022-10-30T00:59:27.408Z,11.4
2022-10-30T01:00:35.742Z,11.4
2022-10-30T01:01:44.422Z,12.5
2022-10-30T01:02:52.601Z,12.5
2022-10-30T01:04:00.949Z,12.5
2022-10-30T01:06:17.821Z,13.8
2022-10-30T01:07:26.149Z,13.8
2022-10-30T01:08:34.731Z,9
2022-10-30T01:09:43.015Z,9
2022-10-30T01:10:51.390Z,9
2022-10-30T01:11:59.907Z,9.6
2022-10-30T01:13:08.235Z,9.6
2022-10-30T01:14:16.580Z,9.6
2022-10-30T01:15:25.126Z,14.5
2022-10-30T01:16:33.468Z,14.5
2022-10-30T01:17:41.782Z,14.5
2022-10-30T01:18:50.342Z,10.6
2022-10-30T01:19:58.752Z,10.6
2022-10-30T01:21:07.016Z,10.6
2022-10-30T01:22:15.550Z,11.3
2022-10-30T01:23:23.885Z,11.3
2022-10-30T01:24:32.223Z,11.3
2022-10-30T01:25:40.765Z,12.3
2022-10-30T01:26:49.115Z,12.3
2022-10-30T01:27:57.422Z,12.3
2022-10-30T01:29:05.961Z,9.6
2022-10-30T01:30:14.284Z,9.6
2022-10-30T01:31:22.618Z,9.6
2022-10-30T01:32:31.157Z,11.3
2022-10-30T01:33:39.509Z,11.3
2022-10-30T01:34:47.838Z,11.3
2022-10-30T01:35:56.371Z,11.8
2022-10-30T01:37:04.702Z,11.8
2022-10-30T01:38:13.078Z,11.8
2022-10-30T01:39:21.602Z,10.1
2022-10-30T01:40:29.959Z,10.1
2022-10-30T01:41:38.294Z,10.1
2022-10-30T01:42:46.889Z,9.7
2022-10-30T01:43:55.191Z,9.7
2022-10-30T01:45:03.541Z,9.7
2022-10-30T01:46:12.066Z,10.6
2022-10-30T01:47:20.399Z,10.6
2022-10-30T01:48:28.742Z,10.6
2022-10-30T01:49:37.288Z,15.3
2022-10-30T01:50:45.626Z,15.3
2022-10-30T01:51:53.952Z,15.3
2022-10-30T01:53:02.512Z,11.8
2022-10-30T01:54:10.844Z,11.8
2022-10-30T01:55:19.192Z,11.8
2022-10-30T01:56:27.721Z,12.1
2022-10-30T01:57:36.055Z,12.1
2022-10-30T01:58:44.441Z,12.1
2022-10-30T01:59:52.946Z,11
2022-10-30T02:01:01.337Z,11
2022-10-30T02:02:09.698Z,11
2022-10-30T02:03:18.178Z,11.4
2022-10-30T02:04:26.514Z,11.4
2022-10-30T02:05:34.847Z,11.4
2022-10-30T02:06:43.408Z,13.3
2022-10-30T02:07:51.737Z,13.3
2022-10-30T02:09:00.068Z,13.3
2022-10-30T02:10:08.609Z,12
2022-10-30T02:11:16.940Z,12
2022-10-30T02:12:25.285Z,12
2022-10-30T02:13:33.814Z,10.6
2022-10-30T02:14:42.165Z,10.6
2022-10-30T02:15:50.483Z,10.6
2022-10-30T02:16:59.044Z,12.7
2022-10-30T02:18:07.392Z,12.7
2022-10-30T02:19:15.726Z,12.7
2022-10-30T02:20:24.263Z,11
2022-10-30T02:21:32.592Z,11
2022-10-30T02:22:40.993Z,11
2022-10-30T02:23:49.501Z,9.9
2022-10-30T02:24:57.823Z,9.9
2022-10-30T02:26:06.158Z,9.9
2022-10-30T02:27:14.717Z,13.4
2022-10-30T02:28:23.039Z,13.4
2022-10-30T02:29:31.372Z,13.4
2022-10-30T02:30:39.937Z,11
2022-10-30T02:31:48.246Z,11
2022-10-30T02:32:56.901Z,11
2022-10-30T02:34:05.125Z,13.6
2022-10-30T02:35:13.458Z,13.6
2022-10-30T02:36:21.794Z,13.6
2022-10-30T02:37:30.349Z,11.6
2022-10-30T02:38:38.682Z,11.6
2022-10-30T02:39:47.007Z,11.6
2022-10-30T02:40:55.552Z,9.3
2022-10-30T02:42:03.876Z,9.3
2022-10-30T02:43:12.217Z,9.3
2022-10-30T02:44:20.748Z,12.2
2022-10-30T02:45:29.080Z,12.2
2022-10-30T02:46:37.430Z,12.2
2022-10-30T02:47:45.963Z,11.2
2022-10-30T02:48:54.286Z,11.2
2022-10-30T02:50:02.617Z,11.2
2022-10-30T02:51:11.161Z,12.6
2022-10-30T02:52:19.513Z,12.6
2022-10-30T02:53:27.863Z,12.6
2022-10-30T02:54:36.397Z,11
2022-10-30T02:55:44.723Z,11
2022-10-30T02:56:53.056Z,11
2022-10-30T02:58:01.596Z,13.4
2022-10-30T02:59:09.937Z,13.4
2022-10-30T03:00:18.260Z,13.4
2022-10-30T03:01:26.885Z,12.1
2022-10-30T03:02:35.160Z,12.1
2022-10-30T03:03:43.521Z,12.1
2022-10-30T03:04:52.001Z,13.3
2022-10-30T03:06:00.336Z,13.3
2022-10-30T03:07:08.674Z,13.3
2022-10-30T03:08:17.213Z,10.4
2022-10-30T03:09:25.536Z,10.4
2022-10-30T03:10:33.889Z,10.4
2022-10-30T03:11:42.426Z,13.4
2022-10-30T03:12:50.779Z,13.4
2022-10-30T03:13:59.112Z,13.4
2022-10-30T03:15:07.647Z,12
2022-10-30T03:16:15.977Z,12
2022-10-30T03:17:24.316Z,12
2022-10-30T03:18:32.878Z,12.4
2022-10-30T03:19:41.188Z,12.4
2022-10-30T03:20:49.515Z,12.4
2022-10-30T03:21:58.074Z,11.2
2022-10-30T03:23:06.392Z,11.2
2022-10-30T03:24:14.718Z,11.2
2022-10-30T03:25:23.268Z,12.2
2022-10-30T03:26:31.597Z,12.2
2022-10-30T03:27:39.930Z,12.2
2022-10-30T03:28:48.467Z,8.7
2022-10-30T03:29:56.792Z,8.7
2022-10-30T03:31:05.127Z,8.7
2022-10-30T03:32:13.747Z,9.7
2022-10-30T03:33:22.022Z,9.7
2022-10-30T03:34:30.369Z,9.7
2022-10-30T03:35:38.880Z,13.6
2022-10-30T03:36:47.222Z,13.6
2022-10-30T03:37:55.546Z,13.6
2022-10-30T03:39:04.078Z,11.6
2022-10-30T03:40:12.419Z,11.6
2022-10-30T03:41:20.739Z,11.6
2022-10-30T03:42:29.275Z,12.5
2022-10-30T03:43:37.597Z,12.5
2022-10-30T03:44:45.937Z,12.5
2022-10-30T03:45:54.489Z,10.9
2022-10-30T03:47:02.844Z,10.9
2022-10-30T03:48:11.151Z,10.9
2022-10-30T03:49:19.684Z,13.2
2022-10-30T03:50:28.037Z,13.2
2022-10-30T03:51:36.356Z,13.2
2022-10-30T03:52:44.888Z,10.7
2022-10-30T03:53:53.212Z,10.7
2022-10-30T03:55:01.550Z,10.7
2022-10-30T03:56:10.079Z,12.9
2022-10-30T03:57:18.413Z,12.9
2022-10-30T03:58:26.739Z,12.9
2022-10-30T03:59:35.286Z,8.5
2022-10-30T04:00:43.641Z,8.5
2022-10-30T04:01:52.072Z,8.5
2022-10-30T04:03:00.893Z,11
2022-10-30T04:04:08.832Z,11
2022-10-30T04:05:17.168Z,11
2022-10-30T04:06:25.727Z,15.3
2022-10-30T04:07:34.043Z,15.3
2022-10-30T04:08:42.372Z,15.3
2022-10-30T04:09:50.903Z,12.9
2022-10-30T04:10:59.323Z,12.9
2022-10-30T04:12:07.565Z,12.9
2022-10-30T04:13:16.104Z,10.7
2022-10-30T04:14:24.439Z,10.7
2022-10-30T04:15:32.770Z,10.7
2022-10-30T04:16:41.317Z,13.2
2022-10-30T04:17:49.637Z,13.2
2022-10-30T04:18:57.977Z,13.2
2022-10-30T04:20:06.518Z,12.8
2022-10-30T04:21:14.847Z,12.8
2022-10-30T04:22:23.219Z,12.8
2022-10-30T04:23:31.740Z,12.5
2022-10-30T04:24:40.083Z,12.5
2022-10-30T04:25:48.404Z,12.5
2022-10-30T04:26:56.955Z,11.7
2022-10-30T04:28:05.309Z,11.7
2022-10-30T04:29:13.641Z,11.7
2022-10-30T04:30:22.171Z,14.4
2022-10-30T04:31:30.513Z,14.4
2022-10-30T04:32:38.845Z,14.4
2022-10-30T04:33:47.402Z,11.9
2022-10-30T04:34:55.738Z,11.9
2022-10-30T04:36:04.062Z,11.9
2022-10-30T04:37:12.610Z,12
2022-10-30T04:38:20.973Z,12
2022-10-30T04:39:29.283Z,12
2022-10-30T04:40:37.816Z,10.4
2022-10-30T04:41:46.159Z,10.4
2022-10-30T04:42:54.519Z,10.4
2022-10-30T04:44:03.032Z,11.8
2022-10-30T04:45:15.085Z,11.8
2022-10-30T04:46:19.710Z,11.8
2022-10-30T04:47:28.343Z,11.9
2022-10-30T04:48:36.578Z,11.9
2022-10-30T04:49:44.909Z,11.9
2022-10-30T04:50:53.445Z,14
2022-10-30T04:52:01.785Z,14
2022-10-30T04:53:10.119Z,14
2022-10-30T04:54:18.683Z,9.9
2022-10-30T04:55:26.980Z,9.9
2022-10-30T04:56:35.337Z,9.9
2022-10-30T04:57:43.883Z,11.5
2022-10-30T04:58:52.208Z,11.5
2022-10-30T05:00:00.536Z,11.5
2022-10-30T05:01:09.114Z,13.7
2022-10-30T05:02:17.552Z,13.7
2022-10-30T05:03:25.739Z,13.7
2022-10-30T05:04:34.285Z,10.4
2022-10-30T05:05:42.605Z,10.4
2022-10-30T05:06:50.963Z,10.4
2022-10-30T05:08:00.036Z,10.6
2022-10-30T05:09:07.854Z,10.6
2022-10-30T05:10:16.209Z,10.6
2022-10-30T05:11:24.728Z,9.1
2022-10-30T05:12:33.055Z,9.1
2022-10-30T05:13:41.381Z,9.1
2022-10-30T05:14:49.909Z,9.3
2022-10-30T05:15:58.273Z,9.3
2022-10-30T05:17:06.601Z,9.3
2022-10-30T05:18:15.140Z,10.9
2022-10-30T05:19:23.483Z,10.9
2022-10-30T05:20:31.838Z,10.9
2022-10-30T05:21:40.381Z,11.9
2022-10-30T05:22:48.745Z,11.9
2022-10-30T05:23:57.085Z,11.9
2022-10-30T05:25:05.636Z,13.4
2022-10-30T05:26:14.004Z,13.4
2022-10-30T05:27:22.321Z,13.4
2022-10-30T05:28:30.866Z,8.5
2022-10-30T05:29:39.195Z,8.5
2022-10-30T05:30:47.534Z,8.5
2022-10-30T05:31:56.085Z,14
2022-10-30T05:33:04.428Z,14
2022-10-30T05:34:12.764Z,14
2022-10-30T05:35:21.304Z,11.7
2022-10-30T05:36:29.679Z,11.7
2022-10-30T05:37:38.022Z,11.7
2022-10-30T05:38:46.581Z,10.2
2022-10-30T05:39:54.912Z,10.2
2022-10-30T05:41:03.254Z,10.2
2022-10-30T05:42:13.802Z,11.3
2022-10-30T05:43:20.119Z,11.3
2022-10-30T05:44:40.636Z,11.3
2022-10-30T05:45:36.999Z,13.4
2022-10-30T05:46:45.392Z,13.4
2022-10-30T05:47:53.660Z,13.4
2022-10-30T05:49:02.190Z,10.5
2022-10-30T05:50:10.560Z,10.5
2022-10-30T05:51:18.908Z,10.5
2022-10-30T05:52:27.450Z,11.3
2022-10-30T05:53:35.795Z,11.3
2022-10-30T05:54:44.131Z,11.3
2022-10-30T05:55:52.710Z,10.9
2022-10-30T05:57:01.050Z,10.9
2022-10-30T05:58:09.410Z,10.9
2022-10-30T05:59:17.922Z,10.7
2022-10-30T06:00:26.261Z,10.7
2022-10-30T06:01:34.718Z,10.7
2022-10-30T06:02:43.231Z,9.6
2022-10-30T06:03:51.479Z,9.6
2022-10-30T06:04:59.844Z,9.6
2022-10-30T06:06:08.392Z,11.2
2022-10-30T06:07:16.745Z,11.2
2022-10-30T06:08:25.075Z,11.2
2022-10-30T06:09:33.639Z,9.6
2022-10-30T06:10:42.006Z,9.6
2022-10-30T06:11:50.327Z,9.6
2022-10-30T06:12:59.116Z,10.1
2022-10-30T06:14:07.215Z,10.1
2022-10-30T06:15:15.529Z,10.1
2022-10-30T06:16:24.141Z,9.4
2022-10-30T06:17:32.412Z,9.4
2022-10-30T06:18:40.746Z,9.4
2022-10-30T06:19:49.312Z,12.5
2022-10-30T06:20:57.657Z,12.5
2022-10-30T06:22:06.003Z,12.5
2022-10-30T06:23:14.544Z,8.7
2022-10-30T06:24:22.890Z,8.7
2022-10-30T06:25:32.378Z,8.7
2022-10-30T06:26:39.827Z,10
2022-10-30T06:27:48.171Z,10
2022-10-30T06:28:56.494Z,10
2022-10-30T06:30:05.077Z,11.1
2022-10-30T06:31:13.468Z,11.1
2022-10-30T06:32:21.720Z,11.1
2022-10-30T06:33:30.250Z,9.5
2022-10-30T06:34:38.599Z,9.5
2022-10-30T06:35:46.951Z,9.5
2022-10-30T06:36:55.555Z,11.3
2022-10-30T06:38:03.820Z,11.3
2022-10-30T06:39:12.176Z,11.3
2022-10-30T06:40:20.708Z,9.7
2022-10-30T06:41:30.376Z,9.7
2022-10-30T06:42:37.366Z,9.7
2022-10-30T06:43:45.933Z,9.1
2022-10-30T06:44:54.303Z,9.1
2022-10-30T06:46:02.713Z,9.1
2022-10-30T06:47:11.205Z,8.2
2022-10-30T06:48:19.532Z,8.2
2022-10-30T06:49:27.889Z,8.2
2022-10-30T06:50:36.438Z,10
2022-10-30T06:51:44.774Z,10
2022-10-30T06:52:53.135Z,10
2022-10-30T06:54:01.681Z,10.8
2022-10-30T06:55:10.020Z,10.8
2022-10-30T06:56:18.338Z,10.8
2022-10-30T06:57:26.884Z,10.4
2022-10-30T06:58:35.211Z,10.4
2022-10-30T06:59:43.556Z,10.4
2022-10-30T07:00:52.108Z,10.6
2022-10-30T07:02:01.075Z,10.6
2022-10-30T07:03:08.767Z,10.6
2022-10-30T07:04:17.319Z,12.9
2022-10-30T07:05:25.648Z,12.9
2022-10-30T07:06:34.018Z,12.9
2022-10-30T07:07:42.602Z,9.7
2022-10-30T07:08:50.945Z,9.7
2022-10-30T07:09:59.290Z,9.7
2022-10-30T07:11:07.823Z,12.9
2022-10-30T07:12:16.151Z,12.9
2022-10-30T07:13:24.476Z,12.9
2022-10-30T07:14:33.027Z,9.4
2022-10-30T07:16:49.752Z,9.4
2022-10-30T07:17:58.526Z,10
2022-10-30T07:19:06.878Z,10
2022-10-30T07:20:15.214Z,10
2022-10-30T07:21:23.775Z,10.4
2022-10-30T07:22:32.111Z,10.4
2022-10-30T07:23:40.474Z,10.4
2022-10-30T07:24:49.015Z,9.7
2022-10-30T07:26:02.581Z,9.7
2022-10-30T07:27:05.903Z,9.7
2022-10-30T07:28:14.461Z,12.6
2022-10-30T07:29:22.787Z,12.6
2022-10-30T07:30:31.121Z,12.6
2022-10-30T07:31:42.563Z,10.3
2022-10-30T07:32:47.979Z,10.3
2022-10-30T07:33:56.335Z,10.3
2022-10-30T07:35:04.870Z,6.7
2022-10-30T07:36:13.242Z,6.7
2022-10-30T07:37:21.564Z,6.7
2022-10-30T07:38:30.105Z,8.1
2022-10-30T07:39:38.438Z,8.1
2022-10-30T07:40:46.767Z,8.1
2022-10-30T07:41:55.312Z,12.3
2022-10-30T07:43:03.870Z,12.3
2022-10-30T07:44:11.985Z,12.3
2022-10-30T07:45:21.666Z,9
2022-10-30T07:46:28.861Z,9
2022-10-30T07:47:37.206Z,9
2022-10-30T07:48:45.740Z,11.1
2022-10-30T07:49:54.090Z,11.1
2022-10-30T07:51:02.413Z,11.1
2022-10-30T07:52:14.551Z,9.2
2022-10-30T07:53:19.307Z,9.2
2022-10-30T07:54:27.677Z,9.2
2022-10-30T07:55:36.215Z,11.2
2022-10-30T07:56:44.596Z,11.2
2022-10-30T07:57:52.960Z,11.2
2022-10-30T07:59:01.507Z,11.6
2022-10-30T08:00:09.829Z,11.6
2022-10-30T08:01:18.275Z,11.6
2022-10-30T08:02:26.922Z,11.4
2022-10-30T08:03:35.117Z,11.4
2022-10-30T08:04:43.455Z,11.4
2022-10-30T08:05:52.071Z,10.9
2022-10-30T08:07:00.422Z,10.9
2022-10-30T08:08:08.782Z,10.9
2022-10-30T08:09:17.319Z,9.7
2022-10-30T08:10:25.651Z,9.7
2022-10-30T08:11:33.998Z,9.7
2022-10-30T08:12:42.549Z,10.5
2022-10-30T08:13:50.881Z,10.5
2022-10-30T08:14:59.212Z,10.5
2022-10-30T08:16:07.798Z,9.5
2022-10-30T08:17:16.137Z,9.5
2022-10-30T08:18:24.466Z,9.5
2022-10-30T08:19:33.020Z,12.9
2022-10-30T08:20:41.411Z,12.9
2022-10-30T08:21:49.716Z,12.9
2022-10-30T08:22:58.684Z,9
2022-10-30T08:24:06.668Z,9
2022-10-30T08:25:15.025Z,9
2022-10-30T08:26:23.584Z,9.2
2022-10-30T08:27:31.953Z,9.2
2022-10-30T08:28:40.316Z,9.2
2022-10-30T08:29:48.847Z,11.4
2022-10-30T08:30:57.189Z,11.4
2022-10-30T08:32:05.543Z,11.4
2022-10-30T08:33:14.089Z,8.6
2022-10-30T08:34:22.425Z,8.6
2022-10-30T08:35:30.782Z,8.6
2022-10-30T08:36:39.428Z,9.6
2022-10-30T08:37:47.641Z,9.6
2022-10-30T08:38:55.948Z,9.6
2022-10-30T08:40:04.479Z,8.4
2022-10-30T08:41:12.857Z,8.4
2022-10-30T08:42:21.182Z,8.4
2022-10-30T08:43:29.757Z,9.1
2022-10-30T08:44:38.084Z,9.1
2022-10-30T08:45:46.451Z,9.1
2022-10-30T08:46:55.017Z,12.1
2022-10-30T08:48:03.509Z,12.1
2022-10-30T08:49:11.738Z,12.1
2022-10-30T08:51:28.650Z,13.4
2022-10-30T08:52:36.982Z,13.4
2022-10-30T08:53:45.557Z,14.8
2022-10-30T08:54:53.891Z,14.8
2022-10-30T08:56:02.211Z,14.8
2022-10-30T08:57:10.765Z,22.4
2022-10-30T08:58:19.121Z,22.4
2022-10-30T08:59:27.505Z,22.4
2022-10-30T09:00:36.048Z,12.6
2022-10-30T09:01:44.489Z,12.6
2022-10-30T09:02:52.781Z,12.6
2022-10-30T09:04:01.327Z,10.6
2022-10-30T09:05:09.716Z,10.6
2022-10-30T09:06:18.000Z,10.6
2022-10-30T09:07:26.541Z,21.799999
2022-10-30T09:08:34.904Z,21.799999
2022-10-30T09:09:43.310Z,21.799999
2022-10-30T09:10:51.927Z,12.2
2022-10-30T09:12:00.281Z,12.2
2022-10-30T09:13:08.811Z,12.2
2022-10-30T09:14:17.362Z,9.8
2022-10-30T09:15:25.684Z,9.8
2022-10-30T09:16:34.072Z,9.8
2022-10-30T09:17:42.632Z,13.2
2022-10-30T09:18:50.966Z,13.2
2022-10-30T09:19:59.299Z,13.2
2022-10-30T09:21:07.873Z,9.4
2022-10-30T09:22:16.196Z,9.4
2022-10-30T09:23:24.517Z,9.4
2022-10-30T09:24:33.087Z,9.2
2022-10-30T09:25:41.476Z,9.2
2022-10-30T09:26:49.776Z,9.2
2022-10-30T09:27:58.322Z,14.9
2022-10-30T09:29:06.652Z,14.9
2022-10-30T09:30:15.019Z,14.9
2022-10-30T09:31:23.564Z,10.5
2022-10-30T09:32:31.930Z,10.5
2022-10-30T09:33:40.261Z,10.5
2022-10-30T09:34:48.815Z,11.3
2022-10-30T09:35:57.175Z,11.3
2022-10-30T09:37:05.529Z,11.3
2022-10-30T09:38:14.083Z,13.4
2022-10-30T09:39:22.411Z,13.4
2022-10-30T09:40:30.765Z,13.4
2022-10-30T09:41:39.353Z,12.8
2022-10-30T09:42:47.668Z,12.8
2022-10-30T09:43:56.015Z,12.8
2022-10-30T09:45:30.224Z,14.2
2022-10-30T09:46:12.895Z,14.2
2022-10-30T09:47:23.431Z,14.2
2022-10-30T09:48:29.799Z,13.3
2022-10-30T09:49:38.159Z,13.3
2022-10-30T09:50:46.526Z,13.3
2022-10-30T09:51:55.064Z,13
2022-10-30T09:53:03.418Z,13
2022-10-30T09:54:11.747Z,13
2022-10-30T09:55:20.293Z,13.3
2022-10-30T09:56:28.637Z,13.3
2022-10-30T09:57:37.021Z,13.3
2022-10-30T09:58:45.553Z,10.8
2022-10-30T09:59:53.881Z,10.8
2022-10-30T10:01:06.215Z,10.8
2022-10-30T10:02:10.896Z,10.4
2022-10-30T10:03:19.119Z,10.4
2022-10-30T10:04:27.624Z,10.4
2022-10-30T10:05:36.053Z,8.4
2022-10-30T10:06:44.400Z,8.4
2022-10-30T10:07:52.760Z,8.4
2022-10-30T10:09:01.285Z,10.1
2022-10-30T10:10:09.673Z,10.1
2022-10-30T10:11:17.975Z,10.1
2022-10-30T10:12:26.524Z,10.8
2022-10-30T10:13:34.916Z,10.8
2022-10-30T10:14:43.213Z,10.8
2022-10-30T10:15:51.773Z,10.3
2022-10-30T10:17:00.144Z,10.3
2022-10-30T10:18:08.472Z,10.3
2022-10-30T10:19:17.011Z,14.3
2022-10-30T10:20:25.369Z,14.3
2022-10-30T10:21:33.700Z,14.3
2022-10-30T10:22:42.237Z,9.6
2022-10-30T10:23:50.568Z,9.6
2022-10-30T10:24:58.911Z,9.6
2022-10-30T10:26:07.463Z,14.2
2022-10-30T10:27:15.796Z,14.2
2022-10-30T10:28:24.163Z,14.2
2022-10-30T10:29:32.727Z,9.1
2022-10-30T10:30:41.053Z,9.1
2022-10-30T10:31:49.386Z,9.1
2022-10-30T10:32:58.231Z,12
2022-10-30T10:34:06.294Z,12
2022-10-30T10:35:14.657Z,12
2022-10-30T10:36:23.208Z,10.7
2022-10-30T10:37:31.565Z,10.7
2022-10-30T10:38:39.899Z,10.7
2022-10-30T10:39:48.446Z,9.8
2022-10-30T10:40:56.779Z,9.8
2022-10-30T10:42:05.118Z,9.8
2022-10-30T10:43:13.747Z,10.9
2022-10-30T10:44:22.072Z,10.9
2022-10-30T10:45:30.460Z,10.9
2022-10-30T10:46:39.002Z,13.6
2022-10-30T10:47:47.363Z,13.6
2022-10-30T10:48:55.708Z,13.6
2022-10-30T10:50:04.258Z,12.5
2022-10-30T10:51:12.621Z,12.5
2022-10-30T10:52:20.952Z,12.5
2022-10-30T10:53:29.508Z,10.7
2022-10-30T10:54:37.863Z,10.7
2022-10-30T10:55:46.207Z,10.7
2022-10-30T10:56:54.757Z,10.8
2022-10-30T10:58:03.085Z,10.8
2022-10-30T10:59:11.421Z,10.8
2022-10-30T11:00:20.007Z,14.1
2022-10-30T11:01:28.482Z,14.1
2022-10-30T11:02:36.727Z,14.1
2022-10-30T11:03:45.233Z,11.1
2022-10-30T11:04:53.568Z,11.1
2022-10-30T11:06:01.902Z,11.1
2022-10-30T11:07:10.480Z,9.5
2022-10-30T11:08:18.818Z,9.5
2022-10-30T11:09:27.146Z,9.5
2022-10-30T11:10:35.721Z,9
2022-10-30T11:11:44.047Z,9
2022-10-30T11:12:52.388Z,9
2022-10-30T11:14:00.931Z,9.1
2022-10-30T11:15:09.297Z,9.1
2022-10-30T11:16:17.642Z,9.1
2022-10-30T11:17:26.208Z,11.4
2022-10-30T11:18:34.542Z,11.4
2022-10-30T11:19:44.493Z,11.4
2022-10-30T11:20:51.413Z,7.8
2022-10-30T11:21:59.793Z,7.8
2022-10-30T11:23:08.079Z,7.8
2022-10-30T11:24:16.621Z,10.9
2022-10-30T11:25:25.491Z,10.9
2022-10-30T11:26:33.309Z,10.9
2022-10-30T11:27:41.857Z,7.7
2022-10-30T11:28:50.205Z,7.7
2022-10-30T11:29:58.559Z,7.7
2022-10-30T11:31:07.122Z,8.6
2022-10-30T11:32:15.455Z,8.6
2022-10-30T11:33:23.809Z,8.6
2022-10-30T11:34:32.341Z,7.5
2022-10-30T11:35:40.680Z,7.5
2022-10-30T11:36:49.008Z,7.5
2022-10-30T11:37:57.576Z,11.1
2022-10-30T11:39:05.915Z,11.1
2022-10-30T11:40:14.254Z,11.1
2022-10-30T11:41:22.797Z,8
2022-10-30T11:42:31.132Z,8
2022-10-30T11:43:39.468Z,8
2022-10-30T11:44:48.016Z,8.1
2022-10-30T11:45:56.363Z,8.1
2022-10-30T11:47:04.703Z,8.1
2022-10-30T11:48:13.780Z,30
2022-10-30T11:49:21.618Z,30
2022-10-30T11:50:29.954Z,30
2022-10-30T11:51:38.576Z,9.4
2022-10-30T11:52:46.808Z,9.4
2022-10-30T11:53:55.148Z,9.4
2022-10-30T11:55:03.690Z,10.5
2022-10-30T11:56:12.022Z,10.5
2022-10-30T11:57:20.352Z,10.5
2022-10-30T11:58:28.887Z,9.9
2022-10-30T11:59:37.220Z,9.9
2022-10-30T12:00:45.552Z,9.9
2022-10-30T12:01:54.198Z,11.1
2022-10-30T12:03:02.731Z,11.1
2022-10-30T12:04:10.771Z,11.1
2022-10-30T12:05:19.336Z,9
2022-10-30T12:06:27.661Z,9
2022-10-30T12:07:36.003Z,9
2022-10-30T12:08:44.545Z,10
2022-10-30T12:09:52.897Z,10
2022-10-30T12:11:01.226Z,10
2022-10-30T12:12:09.764Z,9.1
2022-10-30T12:13:18.093Z,9.1
2022-10-30T12:14:26.475Z,9.1
2022-10-30T12:15:35.033Z,8.2
2022-10-30T12:16:43.357Z,8.2
2022-10-30T12:17:51.699Z,8.2
2022-10-30T12:19:00.246Z,8.6
2022-10-30T12:20:08.581Z,8.6
2022-10-30T12:21:16.933Z,8.6
2022-10-30T12:22:25.459Z,8
2022-10-30T12:23:33.800Z,8
2022-10-30T12:24:42.133Z,8
2022-10-30T12:25:50.682Z,9.7
2022-10-30T12:26:58.990Z,9.7
2022-10-30T12:28:07.598Z,9.7
2022-10-30T12:29:16.051Z,10.4
2022-10-30T12:30:24.380Z,10.4
2022-10-30T12:31:32.733Z,10.4
2022-10-30T12:32:41.278Z,6.6
2022-10-30T12:33:49.608Z,6.6
2022-10-30T12:34:57.969Z,6.6
2022-10-30T12:36:06.528Z,7.4
2022-10-30T12:37:14.877Z,7.4
2022-10-30T12:38:23.215Z,7.4
2022-10-30T12:39:31.757Z,10.2
2022-10-30T12:40:40.099Z,10.2
2022-10-30T12:41:48.434Z,10.2
2022-10-30T12:42:56.993Z,10.6
2022-10-30T12:44:05.320Z,10.6
2022-10-30T12:45:13.679Z,10.6
2022-10-30T12:46:22.220Z,8.8
2022-10-30T12:47:30.576Z,8.8
2022-10-30T12:48:38.921Z,8.8
2022-10-30T12:49:47.477Z,8.5
2022-10-30T12:50:55.807Z,8.5
2022-10-30T12:52:04.132Z,8.5
2022-10-30T12:53:12.734Z,7.9
2022-10-30T12:54:21.071Z,7.9
2022-10-30T12:55:29.405Z,7.9
2022-10-30T12:56:37.959Z,8.2
2022-10-30T12:57:46.317Z,8.2
2022-10-30T12:58:54.786Z,8.2
2022-10-30T13:00:05.305Z,7.1
2022-10-30T13:01:13.867Z,7.1
2022-10-30T13:02:22.075Z,7.1
2022-10-30T13:03:30.575Z,8.2
2022-10-30T13:04:38.910Z,8.2
2022-10-30T13:05:47.333Z,8.2
2022-10-30T13:06:57.429Z,9.1
2022-10-30T13:08:05.772Z,9.1
2022-10-30T13:10:31.993Z,6.6
2022-10-30T13:11:40.290Z,6.6
2022-10-30T13:12:48.635Z,6.6
2022-10-30T13:13:57.207Z,9
2022-10-30T13:15:05.572Z,9
2022-10-30T13:16:13.880Z,9
2022-10-30T13:17:22.423Z,5.7
2022-10-30T13:18:30.770Z,5.7
2022-10-30T13:19:39.106Z,5.7
2022-10-30T13:20:47.643Z,8.3
2022-10-30T13:21:55.996Z,8.3
2022-10-30T13:23:04.337Z,8.3
2022-10-30T13:24:12.924Z,7.5
2022-10-30T13:25:21.255Z,7.5
2022-10-30T13:26:29.627Z,7.5
2022-10-30T13:27:38.124Z,8.4
2022-10-30T13:28:46.745Z,8.4
2022-10-30T13:29:55.074Z,8.4
2022-10-30T13:31:03.657Z,6.8
2022-10-30T13:32:12.064Z,6.8
2022-10-30T13:33:20.431Z,6.8
2022-10-30T13:34:28.991Z,8.8
2022-10-30T13:35:37.339Z,8.8
2022-10-30T13:37:54.208Z,11.9
2022-10-30T13:39:02.579Z,11.9
2022-10-30T13:40:10.904Z,11.9
2022-10-30T13:41:19.443Z,9.9
2022-10-30T13:42:27.810Z,9.9
2022-10-30T13:43:40.065Z,9.9
2022-10-30T13:44:44.662Z,9.2
2022-10-30T13:45:53.003Z,9.2
2022-10-30T13:47:01.341Z,9.2
2022-10-30T13:48:09.895Z,9.7
2022-10-30T13:49:18.224Z,9.7
2022-10-30T13:50:26.567Z,9.7
2022-10-30T13:51:35.129Z,8.2
2022-10-30T13:52:43.451Z,8.2
2022-10-30T13:53:51.815Z,8.2
2022-10-30T13:55:00.349Z,7.8
2022-10-30T13:56:08.688Z,7.8
2022-10-30T13:57:17.038Z,7.8
2022-10-30T13:58:25.606Z,8.5
2022-10-30T13:59:33.938Z,8.5
2022-10-30T14:00:42.267Z,8.5
2022-10-30T14:01:50.936Z,6.1
2022-10-30T14:02:59.430Z,6.1
2022-10-30T14:04:07.498Z,6.1
2022-10-30T14:05:16.032Z,7.1
2022-10-30T14:06:24.361Z,7.1
2022-10-30T14:07:32.709Z,7.1
2022-10-30T14:08:41.266Z,9
2022-10-30T14:09:49.615Z,9
2022-10-30T14:10:59.533Z,9
2022-10-30T14:12:06.495Z,8.9
2022-10-30T14:13:14.830Z,8.9
2022-10-30T14:14:23.204Z,8.9
2022-10-30T14:15:31.723Z,8.6
2022-10-30T14:16:40.065Z,8.6
2022-10-30T14:17:48.386Z,8.6
2022-10-30T14:18:56.945Z,13.3
2022-10-30T14:20:10.376Z,13.3
2022-10-30T14:21:13.625Z,13.3
2022-10-30T14:22:22.162Z,9.7
2022-10-30T14:23:30.528Z,9.7
2022-10-30T14:24:38.866Z,9.7
2022-10-30T14:25:47.400Z,8.1
2022-10-30T14:26:55.744Z,8.1
2022-10-30T14:28:04.126Z,8.1
2022-10-30T14:29:12.656Z,6.9
2022-10-30T15:02:40.479Z,0
2022-10-30T15:03:48.737Z,0
2022-10-30T15:04:57.089Z,0
2022-10-30T15:06:05.707Z,7.8
2022-10-30T15:07:13.991Z,7.8
2022-10-30T15:08:22.331Z,7.8
2022-10-30T15:09:30.888Z,9.4
2022-10-30T15:10:39.226Z,9.4
2022-10-30T15:11:47.602Z,9.4
2022-10-30T15:12:56.991Z,13.1
2022-10-30T15:14:04.486Z,13.1
2022-10-30T15:15:12.850Z,13.1
2022-10-30T15:16:21.407Z,8.3
2022-10-30T15:17:29.758Z,8.3
2022-10-30T15:18:38.170Z,8.3
2022-10-30T15:19:46.686Z,8
2022-10-30T15:20:55.042Z,8
2022-10-30T15:22:03.396Z,8
2022-10-30T15:23:11.959Z,9.6
2022-10-30T15:24:20.305Z,9.6
2022-10-30T15:25:28.657Z,9.6
2022-10-30T15:26:37.219Z,11.3
2022-10-30T15:27:45.591Z,11.3
2022-10-30T15:28:53.932Z,11.3
2022-10-30T15:30:02.499Z,8.3
2022-10-30T15:31:10.846Z,8.3
2022-10-30T15:32:19.212Z,8.3
2022-10-30T15:33:27.756Z,8.4
2022-10-30T15:34:36.124Z,8.4
2022-10-30T15:35:44.449Z,8.4
2022-10-30T15:36:53.007Z,11.5
2022-10-30T15:38:01.405Z,11.5
2022-10-30T15:39:09.749Z,11.5
2022-10-30T15:40:18.317Z,14
2022-10-30T15:41:26.644Z,14
2022-10-30T15:42:35.097Z,14
2022-10-30T15:43:43.537Z,10.9
2022-10-30T15:44:51.880Z,10.9
2022-10-30T15:46:00.212Z,10.9
2022-10-30T15:47:08.765Z,12.4
2022-10-30T15:48:17.124Z,12.4
2022-10-30T15:49:25.469Z,12.4
2022-10-30T15:50:34.042Z,52.299999
2022-10-30T15:51:42.359Z,52.299999
2022-10-30T15:52:50.718Z,52.299999
2022-10-30T15:53:59.254Z,15.6
2022-10-30T15:55:07.606Z,15.6
2022-10-30T15:56:17.283Z,15.6
2022-10-30T15:57:49.748Z,16.6
2022-10-30T15:58:32.889Z,16.6
2022-10-30T15:59:41.249Z,16.6
2022-10-30T16:00:49.817Z,11.9
2022-10-30T16:01:58.266Z,11.9
2022-10-30T16:03:06.514Z,11.9
2022-10-30T16:04:15.064Z,8.9
2022-10-30T16:05:23.435Z,8.9
2022-10-30T16:06:31.816Z,8.9